Time;durP1;ratioP1;P1;durP2;ratioP2;P2;SDS_P1;SDS_P2;PMS_P1;PMS_P2;Temp;Humidity;BMP_temperature;BMP_pressure;BME280_temperature;BME280_humidity;BME280_pressure;Samples;Min_cycle;Max_cycle;Signal;HPM_P1;HPM_P2
2023/05/08 00:01:02;;;;;;;1.08;0.93;;;19.40;80.00;;;;;;5042023;28;46440;-71
2023/05/08 00:03:29;;;;;;;1.15;1.00;;;19.40;79.90;;;;;;5042233;28;45188;-72
2023/05/08 00:05:55;;;;;;;1.67;1.25;;;19.40;79.80;;;;;;5041812;28;45200;-72
2023/05/08 00:08:24;;;;;;;0.90;0.88;;;19.40;79.80;;;;;;5042036;28;45554;-72
2023/05/08 00:10:50;;;;;;;1.60;1.20;;;19.40;79.90;;;;;;5041655;28;45417;-71
2023/05/08 00:13:17;;;;;;;2.25;1.10;;;19.40;80.20;;;;;;5041815;28;45333;-72
2023/05/08 00:15:44;;;;;;;1.73;1.10;;;19.40;80.40;;;;;;5042029;27;45225;-71
2023/05/08 00:18:11;;;;;;;1.40;1.20;;;19.40;80.40;;;;;;5042072;28;45328;-72
2023/05/08 00:20:38;;;;;;;1.63;1.17;;;19.40;80.50;;;;;;5041745;28;46385;-72
2023/05/08 00:23:05;;;;;;;1.60;1.20;;;19.40;80.60;;;;;;5041873;28;45407;-72
2023/05/08 00:25:33;;;;;;;2.33;1.40;;;19.40;80.50;;;;;;5041550;27;45274;-72
2023/05/08 00:28:00;;;;;;;1.70;1.20;;;19.40;80.60;;;;;;5041955;28;45430;-72
2023/05/08 00:30:27;;;;;;;2.28;1.25;;;19.40;80.70;;;;;;5041661;28;46785;-72
2023/05/08 00:32:54;;;;;;;1.60;1.17;;;19.40;80.60;;;;;;5041669;28;45462;-72
2023/05/08 00:35:21;;;;;;;2.50;1.48;;;19.40;80.50;;;;;;5041739;28;45486;-72
2023/05/08 00:37:47;;;;;;;1.20;1.10;;;19.40;80.50;;;;;;5041533;28;45306;-71
2023/05/08 00:40:14;;;;;;;1.33;1.10;;;19.40;80.40;;;;;;5041892;28;46393;-72
2023/05/08 00:42:43;;;;;;;1.70;1.20;;;19.40;80.30;;;;;;5041375;28;45529;-72
2023/05/08 00:45:10;;;;;;;1.23;1.05;;;19.40;80.30;;;;;;5041017;28;45276;-72
2023/05/08 00:47:38;;;;;;;2.75;1.50;;;19.40;80.20;;;;;;5041685;28;45384;-71
2023/05/08 00:50:06;;;;;;;1.55;1.15;;;19.40;80.10;;;;;;5040215;28;46539;-72
2023/05/08 00:52:33;;;;;;;2.03;1.50;;;19.40;80.10;;;;;;5038909;28;45430;-71
2023/05/08 00:55:01;;;;;;;2.17;1.33;;;19.40;80.20;;;;;;5041579;28;45263;-72
2023/05/08 00:57:29;;;;;;;1.75;1.10;;;19.40;80.50;;;;;;5041766;28;45498;-73
2023/05/08 01:00:00;;;;;;;1.83;1.10;;;19.40;80.60;;;;;;5041353;28;46040;-72
2023/05/08 01:02:30;;;;;;;1.48;1.38;;;19.40;80.60;;;;;;5041512;28;45444;-72
2023/05/08 01:04:56;;;;;;;1.33;1.20;;;19.40;80.80;;;;;;5033372;28;45418;-72
2023/05/08 01:07:23;;;;;;;2.72;1.30;;;19.40;80.70;;;;;;5041318;28;45312;-72
2023/05/08 01:09:50;;;;;;;1.88;1.40;;;19.40;81.90;;;;;;5041135;28;47199;-72
2023/05/08 01:12:22;;;;;;;1.67;1.35;;;19.40;80.70;;;;;;5041077;28;45404;-72
2023/05/08 01:15:02;;;;;;;2.22;1.50;;;19.40;80.70;;;;;;5040793;28;45352;-72
2023/05/08 01:17:38;;;;;;;1.83;1.17;;;19.40;80.80;;;;;;5040939;28;45605;-72
2023/05/08 01:20:18;;;;;;;2.05;1.50;;;19.40;80.60;;;;;;5038052;28;45344;-72
2023/05/08 01:23:06;;;;;;;2.50;1.25;;;19.40;80.40;;;;;;5037750;28;45424;-72
2023/05/08 01:25:56;;;;;;;1.50;1.10;;;19.40;80.50;;;;;;5040160;28;45351;-71
2023/05/08 01:28:45;;;;;;;1.50;1.15;;;19.40;80.40;;;;;;5041339;27;45522;-72
2023/05/08 01:31:18;;;;;;;2.08;1.40;;;19.40;80.20;;;;;;5041583;28;45335;-72
2023/05/08 01:33:54;;;;;;;1.65;1.20;;;19.40;80.30;;;;;;5040976;28;45262;-72
2023/05/08 01:36:30;;;;;;;1.30;1.17;;;19.40;80.00;;;;;;5043918;28;45231;-71
2023/05/08 01:39:07;;;;;;;1.92;1.27;;;19.40;80.20;;;;;;5044287;28;45493;-72
2023/05/08 01:41:36;;;;;;;2.33;1.60;;;19.40;80.40;;;;;;5043833;28;47439;-72
2023/05/08 01:44:13;;;;;;;2.22;1.60;;;19.40;80.60;;;;;;5043676;28;45184;-72
2023/05/08 01:46:40;;;;;;;2.15;1.48;;;19.40;80.80;;;;;;5043688;28;45344;-72
2023/05/08 01:49:10;;;;;;;2.17;1.50;;;19.40;80.90;;;;;;5044153;28;45271;-72
2023/05/08 01:51:42;;;;;;;2.47;1.80;;;19.40;80.50;;;;;;5043074;28;45354;-72
2023/05/08 01:54:12;;;;;;;1.73;1.50;;;19.30;80.30;;;;;;5044032;28;45238;-72
2023/05/08 01:56:42;;;;;;;2.33;1.80;;;19.30;80.20;;;;;;5043685;28;45601;-72
2023/05/08 01:59:13;;;;;;;1.88;1.60;;;19.30;80.10;;;;;;5043680;28;45268;-72
2023/05/08 02:01:41;;;;;;;2.15;1.60;;;19.30;79.90;;;;;;5043565;28;48277;-72
2023/05/08 02:04:11;;;;;;;2.60;1.42;;;19.30;79.60;;;;;;5042730;28;45250;-72
2023/05/08 02:06:39;;;;;;;2.70;1.65;;;19.30;79.50;;;;;;5043419;28;45114;-72
2023/05/08 02:09:08;;;;;;;1.58;1.40;;;19.40;79.60;;;;;;5043723;28;45340;-72
2023/05/08 02:11:37;;;;;;;2.17;1.40;;;19.40;79.40;;;;;;5043124;28;48194;-72
2023/05/08 02:14:05;;;;;;;2.15;1.50;;;19.40;79.50;;;;;;5043218;28;45230;-72
2023/05/08 02:16:33;;;;;;;1.73;1.13;;;19.40;79.50;;;;;;5031049;28;45332;-72
2023/05/08 02:19:02;;;;;;;2.40;1.42;;;19.40;79.50;;;;;;5036163;28;45443;-73
2023/05/08 02:21:31;;;;;;;1.15;1.05;;;19.40;79.40;;;;;;5043193;28;47521;-72
2023/05/08 02:24:00;;;;;;;1.35;1.25;;;19.40;79.50;;;;;;5043384;28;45378;-72
2023/05/08 02:26:27;;;;;;;1.20;1.10;;;19.40;79.70;;;;;;5043138;28;45428;-72
2023/05/08 02:28:56;;;;;;;2.08;1.52;;;19.40;79.80;;;;;;5043809;28;45356;-73
2023/05/08 02:31:24;;;;;;;2.13;1.40;;;19.40;80.10;;;;;;5043200;28;47899;-72
2023/05/08 02:33:53;;;;;;;3.78;1.50;;;19.40;80.10;;;;;;5043302;28;45201;-72
2023/05/08 02:36:21;;;;;;;2.08;1.55;;;19.40;80.10;;;;;;5043355;27;45308;-72
2023/05/08 02:38:52;;;;;;;2.28;1.65;;;19.40;80.20;;;;;;5043512;28;45372;-72
2023/05/08 02:41:22;;;;;;;1.83;1.60;;;19.40;80.30;;;;;;5043138;28;48439;-72
2023/05/08 02:43:49;;;;;;;2.38;1.40;;;19.40;80.30;;;;;;5041592;28;45981;-72
2023/05/08 02:46:19;;;;;;;1.20;1.10;;;19.40;80.30;;;;;;5042914;28;45245;-72
2023/05/08 02:48:56;;;;;;;2.53;1.48;;;19.40;80.00;;;;;;5043552;28;45313;-72
2023/05/08 02:51:28;;;;;;;1.30;1.20;;;19.30;80.10;;;;;;5042300;27;45503;-72
2023/05/08 02:54:04;;;;;;;1.35;1.25;;;19.40;79.80;;;;;;5042870;28;45331;-72
2023/05/08 02:56:36;;;;;;;2.08;1.25;;;19.30;79.60;;;;;;5039879;28;45405;-72
2023/05/08 02:59:14;;;;;;;1.50;1.23;;;19.30;79.60;;;;;;5042871;28;45298;-72
2023/05/08 03:01:48;;;;;;;1.27;1.10;;;19.30;79.80;;;;;;5042457;28;45475;-72
2023/05/08 03:04:22;;;;;;;1.33;1.10;;;19.40;79.70;;;;;;5041284;28;45318;-73
2023/05/08 03:06:50;;;;;;;1.67;1.35;;;19.30;79.70;;;;;;5042723;28;45193;-72
2023/05/08 03:09:21;;;;;;;1.55;1.20;;;19.40;79.80;;;;;;5043033;28;45323;-72
2023/05/08 03:11:53;;;;;;;1.75;1.30;;;19.30;80.10;;;;;;5042496;28;46590;-72
2023/05/08 03:14:24;;;;;;;1.30;1.00;;;19.30;79.80;;;;;;5042535;28;46415;-72
2023/05/08 03:16:53;;;;;;;1.77;1.25;;;19.30;79.90;;;;;;5039215;28;45228;-72
2023/05/08 03:19:27;;;;;;;2.35;1.45;;;19.30;80.00;;;;;;5043180;28;45355;-71
2023/05/08 03:21:55;;;;;;;1.50;1.33;;;19.30;80.00;;;;;;5034175;28;48143;-72
2023/05/08 03:24:25;;;;;;;2.67;1.35;;;19.30;80.00;;;;;;5042722;27;45192;-72
2023/05/08 03:26:52;;;;;;;1.98;1.55;;;19.30;80.00;;;;;;5042646;28;45381;-72
2023/05/08 03:29:20;;;;;;;1.20;1.10;;;19.30;80.00;;;;;;5042715;28;45337;-72
2023/05/08 03:31:48;;;;;;;1.48;1.23;;;19.30;79.90;;;;;;5042280;28;46843;-72
2023/05/08 03:34:17;;;;;;;1.38;1.27;;;19.30;79.90;;;;;;5042496;28;45290;-72
2023/05/08 03:36:44;;;;;;;1.88;1.30;;;19.30;79.90;;;;;;5042425;28;45232;-72
2023/05/08 03:39:11;;;;;;;1.90;1.40;;;19.30;79.80;;;;;;5042578;27;45291;-72
2023/05/08 03:41:39;;;;;;;2.03;1.35;;;19.40;80.80;;;;;;5041764;28;48027;-72
2023/05/08 03:44:07;;;;;;;1.92;1.23;;;19.40;79.80;;;;;;5042111;28;45465;-72
2023/05/08 03:46:35;;;;;;;1.42;1.20;;;19.40;79.80;;;;;;5041894;28;45435;-72
2023/05/08 03:49:04;;;;;;;1.40;1.20;;;19.40;79.60;;;;;;5042633;28;45258;-72
2023/05/08 03:51:32;;;;;;;1.20;1.10;;;19.40;79.80;;;;;;5042096;28;46198;-73
2023/05/08 03:53:58;;;;;;;1.45;1.35;;;19.40;79.80;;;;;;5041713;28;45284;-72
2023/05/08 03:56:25;;;;;;;2.42;1.30;;;19.40;79.80;;;;;;5042034;27;45344;-73
2023/05/08 03:59:00;;;;;;;1.10;1.00;;;19.40;79.80;;;;;;5042204;27;45323;-73
2023/05/08 04:01:38;;;;;;;1.27;1.15;;;19.40;79.90;;;;;;5042514;28;45268;-73
2023/05/08 04:04:10;;;;;;;1.25;1.05;;;19.40;80.00;;;;;;5040736;28;46053;-73
2023/05/08 04:06:44;;;;;;;1.77;1.40;;;19.40;80.00;;;;;;5039051;28;45314;-72
2023/05/08 04:09:17;;;;;;;1.50;1.17;;;19.40;79.90;;;;;;5042789;28;45276;-71
2023/05/08 04:11:59;;;;;;;1.55;1.40;;;19.40;79.80;;;;;;5041966;28;45591;-72
2023/05/08 04:14:31;;;;;;;1.20;1.10;;;19.30;79.80;;;;;;5033130;28;45310;-72
2023/05/08 04:17:03;;;;;;;1.85;1.23;;;19.40;79.90;;;;;;5038791;28;45288;-72
2023/05/08 04:19:35;;;;;;;1.25;1.08;;;19.40;79.90;;;;;;5042183;28;45377;-72
2023/05/08 04:22:07;;;;;;;1.50;1.20;;;19.40;79.70;;;;;;5042074;28;45325;-72
2023/05/08 04:24:37;;;;;;;1.52;1.42;;;19.40;79.60;;;;;;5042104;28;45338;-73
2023/05/08 04:27:04;;;;;;;1.88;1.20;;;19.40;79.60;;;;;;5041426;28;45387;-72
2023/05/08 04:29:33;;;;;;;2.28;1.20;;;19.40;79.40;;;;;;5041637;28;45287;-72
2023/05/08 04:32:01;;;;;;;1.67;1.17;;;19.40;79.40;;;;;;5041549;28;48205;-72
2023/05/08 04:34:28;;;;;;;1.63;1.05;;;19.40;79.30;;;;;;5041792;28;45253;-72
2023/05/08 04:36:55;;;;;;;1.10;1.00;;;19.40;79.30;;;;;;5041700;28;45234;-72
2023/05/08 04:39:22;;;;;;;1.98;1.45;;;19.40;79.30;;;;;;5041630;28;45220;-72
2023/05/08 04:41:51;;;;;;;1.27;1.17;;;19.40;79.40;;;;;;5041252;28;48528;-72
2023/05/08 04:44:17;;;;;;;2.60;1.10;;;19.40;79.40;;;;;;5041634;28;45340;-72
2023/05/08 04:46:46;;;;;;;1.48;1.10;;;19.40;79.50;;;;;;5040546;28;45357;-72
2023/05/08 04:49:12;;;;;;;1.20;1.10;;;19.40;79.50;;;;;;5033697;28;45407;-72
2023/05/08 04:51:39;;;;;;;1.10;1.00;;;19.40;79.60;;;;;;5040997;28;45402;-72
2023/05/08 04:54:06;;;;;;;1.63;1.02;;;19.40;79.50;;;;;;5041171;28;45322;-72
2023/05/08 04:56:33;;;;;;;1.40;1.10;;;19.30;79.40;;;;;;5041328;28;45244;-72
2023/05/08 04:58:59;;;;;;;1.20;1.00;;;19.40;79.40;;;;;;5042167;28;45472;-72
2023/05/08 05:01:26;;;;;;;1.40;1.20;;;19.30;79.30;;;;;;5041342;28;45483;-72
2023/05/08 05:03:54;;;;;;;1.52;1.30;;;19.40;79.30;;;;;;5040372;28;45210;-72
2023/05/08 05:06:21;;;;;;;1.27;1.10;;;19.40;79.20;;;;;;5039529;28;45309;-72
2023/05/08 05:08:48;;;;;;;1.10;0.93;;;19.40;79.20;;;;;;5040786;28;45390;-72
2023/05/08 05:11:14;;;;;;;1.20;1.00;;;19.40;79.10;;;;;;5040954;28;46582;-72
2023/05/08 05:13:41;;;;;;;1.30;1.00;;;19.40;79.10;;;;;;5040798;28;45492;-72
2023/05/08 05:16:08;;;;;;;1.10;0.90;;;19.40;79.00;;;;;;5040719;27;45301;-72
2023/05/08 05:18:35;;;;;;;1.20;1.10;;;19.40;79.00;;;;;;5041540;28;45540;-72
2023/05/08 05:21:03;;;;;;;1.02;0.90;;;19.40;79.00;;;;;;5041240;28;47282;-73
2023/05/08 05:23:29;;;;;;;1.27;1.10;;;19.40;79.00;;;;;;5040957;28;45247;-72
2023/05/08 05:25:56;;;;;;;1.52;1.17;;;19.40;79.10;;;;;;5041045;28;45442;-73
2023/05/08 05:28:23;;;;;;;1.73;1.42;;;19.40;79.30;;;;;;5041173;28;45312;-72
2023/05/08 05:30:50;;;;;;;1.55;1.25;;;19.40;79.40;;;;;;5041023;28;47357;-72
2023/05/08 05:33:17;;;;;;;1.15;1.00;;;19.40;79.40;;;;;;5040918;28;45438;-73
2023/05/08 05:35:43;;;;;;;1.50;1.20;;;19.40;79.40;;;;;;5041050;28;45490;-72
2023/05/08 05:38:11;;;;;;;1.83;1.20;;;19.40;79.50;;;;;;5041276;28;45228;-72
2023/05/08 05:40:38;;;;;;;1.83;1.08;;;19.40;79.40;;;;;;5040494;28;47999;-72
2023/05/08 05:43:05;;;;;;;1.65;1.00;;;19.40;79.40;;;;;;5040865;28;45259;-72
2023/05/08 05:45:32;;;;;;;1.35;1.25;;;19.40;79.40;;;;;;5040212;28;45391;-72
2023/05/08 05:47:59;;;;;;;1.05;0.90;;;19.40;79.50;;;;;;5040984;28;45310;-72
2023/05/08 05:50:26;;;;;;;1.20;1.02;;;19.40;79.30;;;;;;5040260;28;45653;-72
2023/05/08 05:52:53;;;;;;;1.40;1.20;;;19.40;79.30;;;;;;5040416;28;45250;-72
2023/05/08 05:55:22;;;;;;;1.27;1.10;;;19.40;79.20;;;;;;5040549;28;45367;-72
2023/05/08 05:57:49;;;;;;;1.30;1.20;;;19.40;79.20;;;;;;5040300;28;45411;-72
2023/05/08 06:00:17;;;;;;;2.05;1.40;;;19.40;79.10;;;;;;5040412;28;45526;-72
2023/05/08 06:02:44;;;;;;;1.30;1.10;;;19.40;79.20;;;;;;5040314;28;45259;-72
2023/05/08 06:05:11;;;;;;;1.40;1.17;;;19.40;79.20;;;;;;5039744;28;45199;-72
2023/05/08 06:07:38;;;;;;;2.17;1.40;;;19.40;79.60;;;;;;5040736;28;45325;-72
2023/05/08 06:10:06;;;;;;;1.40;1.23;;;19.40;79.80;;;;;;5040261;28;47510;-72
2023/05/08 06:12:35;;;;;;;1.67;1.55;;;19.40;79.90;;;;;;5040167;28;46034;-72
2023/05/08 06:15:02;;;;;;;1.45;1.35;;;19.40;80.00;;;;;;5039927;28;45575;-72
2023/05/08 06:17:28;;;;;;;1.55;1.35;;;19.40;80.10;;;;;;5041417;28;45387;-72
2023/05/08 06:19:55;;;;;;;1.52;1.20;;;19.40;80.20;;;;;;5043265;28;46632;-72
2023/05/08 06:22:23;;;;;;;1.48;1.38;;;19.40;81.30;;;;;;5043516;27;45188;-72
2023/05/08 06:24:52;;;;;;;1.98;1.58;;;19.40;80.40;;;;;;5042643;27;45320;-72
2023/05/08 06:27:19;;;;;;;2.17;1.58;;;19.40;80.40;;;;;;5043753;28;45264;-72
2023/05/08 06:29:50;;;;;;;2.58;1.52;;;19.40;80.50;;;;;;5043150;28;47770;-72
2023/05/08 06:32:17;;;;;;;1.60;1.35;;;19.40;80.30;;;;;;5043297;28;45577;-72
2023/05/08 06:34:44;;;;;;;2.10;1.33;;;19.40;80.20;;;;;;5043251;28;45423;-72
2023/05/08 06:37:10;;;;;;;1.73;1.45;;;19.40;80.10;;;;;;5043286;28;45319;-72
2023/05/08 06:39:37;;;;;;;2.33;1.40;;;19.40;80.00;;;;;;5043526;28;48722;-72
2023/05/08 06:42:05;;;;;;;1.40;1.30;;;19.40;79.80;;;;;;5043355;28;45399;-72
2023/05/08 06:44:32;;;;;;;2.08;1.52;;;19.40;79.80;;;;;;5043539;27;45731;-72
2023/05/08 06:47:00;;;;;;;1.90;1.52;;;19.40;79.70;;;;;;5042234;28;45540;-72
2023/05/08 06:49:27;;;;;;;2.47;1.75;;;19.40;79.90;;;;;;5042769;28;47214;-72
2023/05/08 06:51:54;;;;;;;2.25;1.80;;;19.40;80.20;;;;;;5042740;28;45226;-72
2023/05/08 06:54:21;;;;;;;2.40;1.95;;;19.40;80.30;;;;;;5042467;27;45319;-72
2023/05/08 06:56:47;;;;;;;2.10;1.80;;;19.40;80.50;;;;;;5042727;28;45392;-72
2023/05/08 06:59:14;;;;;;;2.50;1.80;;;19.40;80.50;;;;;;5042954;28;45303;-72
2023/05/08 07:01:41;;;;;;;2.40;1.80;;;19.40;80.60;;;;;;5042457;27;45380;-72
2023/05/08 07:04:09;;;;;;;3.85;1.83;;;19.40;80.50;;;;;;5042766;28;45325;-73
2023/05/08 07:06:36;;;;;;;2.78;1.98;;;19.40;80.50;;;;;;5042595;28;45575;-72
2023/05/08 07:09:03;;;;;;;2.78;2.25;;;19.40;80.70;;;;;;5042827;28;46375;-72
2023/05/08 07:11:29;;;;;;;2.88;2.25;;;19.40;80.70;;;;;;5042559;28;45462;-72
2023/05/08 07:13:56;;;;;;;2.60;2.15;;;19.40;80.70;;;;;;5041986;27;45253;-72
2023/05/08 07:16:23;;;;;;;2.97;2.42;;;19.40;80.40;;;;;;5043017;28;45216;-72
2023/05/08 07:18:50;;;;;;;3.20;2.35;;;19.40;80.40;;;;;;5042722;28;47944;-72
2023/05/08 07:21:20;;;;;;;2.90;2.30;;;19.40;80.40;;;;;;5042669;28;45361;-72
2023/05/08 07:23:50;;;;;;;2.72;2.00;;;19.40;80.20;;;;;;5042799;28;45256;-72
2023/05/08 07:26:17;;;;;;;3.25;2.42;;;19.40;80.30;;;;;;5042511;27;45305;-72
2023/05/08 07:28:43;;;;;;;3.80;2.47;;;19.40;80.10;;;;;;5041734;28;47759;-72
2023/05/08 07:31:10;;;;;;;3.58;2.20;;;19.40;80.20;;;;;;5042712;28;46300;-72
2023/05/08 07:33:37;;;;;;;2.65;2.17;;;19.40;80.10;;;;;;5042729;28;45276;-72
2023/05/08 07:36:05;;;;;;;3.78;2.80;;;19.40;80.30;;;;;;5042305;28;45430;-72
2023/05/08 07:38:33;;;;;;;3.28;2.95;;;19.40;80.30;;;;;;5042179;28;47321;-72
2023/05/08 07:41:00;;;;;;;4.88;2.88;;;19.40;80.40;;;;;;5042495;28;45301;-72
2023/05/08 07:43:27;;;;;;;3.30;2.67;;;19.40;80.50;;;;;;5042566;28;45323;-72
2023/05/08 07:45:54;;;;;;;3.33;2.63;;;19.40;80.40;;;;;;5041810;28;45614;-72
2023/05/08 07:48:21;;;;;;;3.28;2.47;;;19.40;80.60;;;;;;5042393;28;46186;-72
2023/05/08 07:50:49;;;;;;;3.67;2.88;;;19.40;80.60;;;;;;5041547;28;45411;-72
2023/05/08 07:53:16;;;;;;;3.58;2.85;;;19.40;80.60;;;;;;5042247;28;45269;-72
2023/05/08 07:55:44;;;;;;;3.65;2.88;;;19.40;80.70;;;;;;5041804;28;45358;-72
2023/05/08 07:58:11;;;;;;;3.38;2.72;;;19.40;80.70;;;;;;5042288;28;45325;-72
2023/05/08 08:00:38;;;;;;;3.22;2.80;;;19.40;80.50;;;;;;5042164;28;45269;-72
2023/05/08 08:03:05;;;;;;;3.20;2.63;;;19.40;80.30;;;;;;5042477;28;45347;-72
2023/05/08 08:05:32;;;;;;;3.38;2.50;;;19.40;80.10;;;;;;5041730;27;45628;-72
2023/05/08 08:07:59;;;;;;;3.03;2.63;;;19.50;80.10;;;;;;5042072;28;45214;-72
2023/05/08 08:10:26;;;;;;;2.50;2.20;;;19.40;79.90;;;;;;5041707;28;45192;-72
2023/05/08 08:12:54;;;;;;;3.28;2.35;;;19.50;80.00;;;;;;5041742;28;45230;-72
2023/05/08 08:15:21;;;;;;;3.63;2.88;;;19.40;79.80;;;;;;5042015;28;45559;-72
2023/05/08 08:17:48;;;;;;;3.42;2.50;;;19.40;79.60;;;;;;5041536;27;46442;-72
2023/05/08 08:20:15;;;;;;;3.67;2.58;;;19.40;79.70;;;;;;5042368;28;45129;-70
2023/05/08 08:22:41;;;;;;;3.05;2.63;;;19.40;79.70;;;;;;5041614;28;45296;-72
2023/05/08 08:25:09;;;;;;;3.58;2.70;;;19.40;79.70;;;;;;5041602;28;45331;-72
2023/05/08 08:27:36;;;;;;;3.47;2.75;;;19.40;80.00;;;;;;5041603;28;47698;-72
2023/05/08 08:30:04;;;;;;;4.47;3.00;;;19.40;79.90;;;;;;5037393;28;45313;-72
2023/05/08 08:32:31;;;;;;;4.13;3.00;;;19.40;80.00;;;;;;5041607;28;45291;-72
2023/05/08 08:34:58;;;;;;;4.40;2.63;;;19.40;80.00;;;;;;5041743;28;45536;-72
2023/05/08 08:37:25;;;;;;;3.15;2.80;;;19.40;80.00;;;;;;5041350;28;46701;-72
2023/05/08 08:39:52;;;;;;;3.58;3.08;;;19.40;80.10;;;;;;5041219;28;46338;-72
2023/05/08 08:42:18;;;;;;;3.60;3.10;;;19.40;80.30;;;;;;5042029;28;45373;-72
2023/05/08 08:44:45;;;;;;;3.33;2.75;;;19.40;80.30;;;;;;5041671;27;45528;-72
2023/05/08 08:47:18;;;;;;;3.33;2.95;;;19.40;80.20;;;;;;5039922;27;46595;-72
2023/05/08 08:49:48;;;;;;;3.30;2.85;;;19.40;80.00;;;;;;5041734;28;45204;-72
2023/05/08 08:52:30;;;;;;;3.20;2.85;;;19.40;80.00;;;;;;5041501;28;45552;-72
2023/05/08 08:55:00;;;;;;;4.93;2.88;;;19.40;80.00;;;;;;5033265;28;45594;-72
2023/05/08 08:57:28;;;;;;;4.32;3.03;;;19.50;80.00;;;;;;5041518;27;45232;-72
2023/05/08 08:59:58;;;;;;;3.55;2.78;;;19.40;79.80;;;;;;5041212;28;45421;-72
2023/05/08 09:02:27;;;;;;;3.42;2.78;;;19.50;79.80;;;;;;5041316;28;45236;-72
2023/05/08 09:04:54;;;;;;;3.60;3.00;;;19.50;79.90;;;;;;5041324;28;45436;-72
2023/05/08 09:07:21;;;;;;;4.18;2.83;;;19.50;80.00;;;;;;5041124;27;46402;-72
2023/05/08 09:09:48;;;;;;;4.15;2.72;;;19.40;80.10;;;;;;5041859;28;45503;-71
2023/05/08 09:12:15;;;;;;;3.83;3.13;;;19.50;80.30;;;;;;5041296;27;45470;-72
2023/05/08 09:14:42;;;;;;;3.95;2.67;;;19.50;80.30;;;;;;5041112;27;45740;-72
2023/05/08 09:17:09;;;;;;;3.65;3.28;;;19.50;81.50;;;;;;5040950;28;47485;-72
2023/05/08 09:19:38;;;;;;;3.50;3.00;;;19.50;80.50;;;;;;5041277;28;45237;-72
2023/05/08 09:22:08;;;;;;;3.90;3.00;;;19.40;80.50;;;;;;5041101;28;45643;-72
2023/05/08 09:24:57;;;;;;;3.30;2.70;;;19.40;80.50;;;;;;5041269;28;45395;-72
2023/05/08 09:27:26;;;;;;;3.78;2.67;;;19.40;80.40;;;;;;5040777;28;46627;-72
2023/05/08 09:30:00;;;;;;;3.00;2.70;;;19.50;80.30;;;;;;5040960;28;45279;-72
2023/05/08 09:32:27;;;;;;;3.20;2.90;;;19.50;80.20;;;;;;5041144;28;45270;-72
2023/05/08 09:34:56;;;;;;;3.05;2.65;;;19.50;80.10;;;;;;5040880;28;45255;-72
2023/05/08 09:37:22;;;;;;;2.55;2.28;;;19.50;80.00;;;;;;5041014;28;47694;-72
2023/05/08 09:39:49;;;;;;;3.60;3.05;;;19.50;79.90;;;;;;5040816;28;45336;-72
2023/05/08 09:42:16;;;;;;;3.13;2.45;;;19.50;79.90;;;;;;5040816;28;45321;-72
2023/05/08 09:44:48;;;;;;;4.45;2.60;;;19.50;80.00;;;;;;5040823;28;45389;-72
2023/05/08 09:47:17;;;;;;;3.33;2.78;;;19.50;79.90;;;;;;5039976;28;46429;-72
2023/05/08 09:49:58;;;;;;;3.17;2.60;;;19.50;79.90;;;;;;5040502;28;45433;-72
2023/05/08 09:52:25;;;;;;;3.08;2.50;;;19.50;80.10;;;;;;5041571;27;45300;-72
2023/05/08 09:54:58;;;;;;;3.03;2.72;;;19.50;80.20;;;;;;5043153;27;45267;-73
2023/05/08 09:57:24;;;;;;;3.20;2.47;;;19.50;80.30;;;;;;5043250;28;48288;-72
2023/05/08 09:59:51;;;;;;;3.42;2.53;;;19.50;80.40;;;;;;5042831;28;45264;-72
2023/05/08 10:02:19;;;;;;;2.92;2.22;;;19.50;80.40;;;;;;5038547;28;45318;-72
2023/05/08 10:04:46;;;;;;;2.67;2.47;;;19.50;80.50;;;;;;5043615;28;45549;-72
2023/05/08 10:07:14;;;;;;;2.92;2.60;;;19.50;80.70;;;;;;5043124;28;46569;-72
2023/05/08 10:09:58;;;;;;;2.90;2.20;;;19.50;80.60;;;;;;5043323;28;45616;-72
2023/05/08 10:12:25;;;;;;;3.25;2.38;;;19.50;80.70;;;;;;5043249;28;45219;-72
2023/05/08 10:14:51;;;;;;;2.63;2.40;;;19.50;80.70;;;;;;5042920;28;45294;-73
2023/05/08 10:17:25;;;;;;;2.53;2.15;;;19.50;80.30;;;;;;5043518;28;47556;-72
2023/05/08 10:19:58;;;;;;;2.17;1.90;;;19.50;80.30;;;;;;5043607;27;45320;-72
2023/05/08 10:22:27;;;;;;;2.25;2.05;;;19.50;80.00;;;;;;5043472;28;45183;-72
2023/05/08 10:24:57;;;;;;;2.40;2.20;;;19.50;80.00;;;;;;5043058;28;45366;-72
2023/05/08 10:27:30;;;;;;;2.42;2.10;;;19.50;79.80;;;;;;5043118;28;48671;-72
2023/05/08 10:30:02;;;;;;;3.05;2.15;;;19.50;79.70;;;;;;5043356;28;45298;-72
2023/05/08 10:32:34;;;;;;;1.95;1.73;;;19.50;79.60;;;;;;5043271;28;45438;-72
2023/05/08 10:35:04;;;;;;;2.72;1.85;;;19.50;79.70;;;;;;5035774;28;45342;-72
2023/05/08 10:37:35;;;;;;;2.17;1.90;;;19.50;79.90;;;;;;5042944;27;46325;-73
2023/05/08 10:40:03;;;;;;;2.25;2.03;;;19.50;80.00;;;;;;5040078;28;45448;-72
2023/05/08 10:42:31;;;;;;;2.03;1.80;;;19.50;80.20;;;;;;5043031;28;45334;-72
2023/05/08 10:44:57;;;;;;;1.88;1.75;;;19.50;80.20;;;;;;5035013;28;45181;-72
2023/05/08 10:47:33;;;;;;;2.17;1.90;;;19.50;80.10;;;;;;5041858;28;46644;-72
2023/05/08 10:50:05;;;;;;;2.42;1.85;;;19.50;80.00;;;;;;5043000;28;45211;-72
2023/05/08 10:52:38;;;;;;;1.63;1.52;;;19.50;80.10;;;;;;5043163;28;45467;-72
2023/05/08 10:55:26;;;;;;;1.98;1.73;;;19.50;80.00;;;;;;5042588;28;45387;-72
2023/05/08 10:58:03;;;;;;;1.63;1.50;;;19.50;81.00;;;;;;5042460;28;47480;-72
2023/05/08 11:00:33;;;;;;;1.70;1.60;;;19.50;79.80;;;;;;5037037;28;45274;-72
2023/05/08 11:03:09;;;;;;;2.67;1.75;;;19.50;79.70;;;;;;5022916;28;45221;-72
2023/05/08 11:05:46;;;;;;;2.78;1.77;;;19.50;79.70;;;;;;5039366;28;45471;-72
2023/05/08 11:08:17;;;;;;;1.85;1.60;;;19.50;79.50;;;;;;5042683;28;48325;-72
2023/05/08 11:10:47;;;;;;;1.70;1.60;;;19.60;79.50;;;;;;5042992;28;45235;-72
2023/05/08 11:13:14;;;;;;;2.03;1.83;;;19.60;79.40;;;;;;5042616;28;45342;-72
2023/05/08 11:15:42;;;;;;;1.50;1.40;;;19.50;79.40;;;;;;5042560;28;45524;-72
2023/05/08 11:18:10;;;;;;;1.40;1.30;;;19.50;79.30;;;;;;5042628;28;45916;-72
2023/05/08 11:20:41;;;;;;;1.42;1.30;;;19.50;79.20;;;;;;5042984;28;45254;-72
2023/05/08 11:23:26;;;;;;;1.50;1.40;;;19.50;79.40;;;;;;5042839;28;45389;-72
2023/05/08 11:26:01;;;;;;;1.80;1.70;;;19.50;79.50;;;;;;5041825;28;45581;-72
2023/05/08 11:28:28;;;;;;;2.00;1.50;;;19.50;79.70;;;;;;5042468;28;47627;-72
2023/05/08 11:30:55;;;;;;;1.90;1.67;;;19.50;79.80;;;;;;5042356;28;45389;-72
2023/05/08 11:33:23;;;;;;;1.58;1.42;;;19.50;79.80;;;;;;5042132;28;45309;-72
2023/05/08 11:35:55;;;;;;;2.03;1.27;;;19.50;79.70;;;;;;5041985;28;45205;-72
2023/05/08 11:38:29;;;;;;;1.30;1.20;;;19.50;79.60;;;;;;5041939;28;48226;-72
2023/05/08 11:41:01;;;;;;;1.50;1.38;;;19.50;79.60;;;;;;5035645;28;45648;-72
2023/05/08 11:43:44;;;;;;;1.88;1.38;;;19.50;79.50;;;;;;5042102;28;45281;-72
2023/05/08 11:46:15;;;;;;;1.60;1.20;;;19.50;79.40;;;;;;5040387;28;45578;-72
2023/05/08 11:48:42;;;;;;;1.50;1.30;;;19.50;79.30;;;;;;5039141;28;46062;-72
2023/05/08 11:51:09;;;;;;;1.70;1.60;;;19.50;79.30;;;;;;5041992;28;45225;-72
2023/05/08 11:53:38;;;;;;;1.42;1.33;;;19.60;79.40;;;;;;5042126;28;45225;-72
2023/05/08 11:56:06;;;;;;;1.55;1.45;;;19.60;79.40;;;;;;5041561;28;45583;-72
2023/05/08 11:58:35;;;;;;;1.52;1.23;;;19.60;79.30;;;;;;5042108;28;46300;-72
2023/05/08 12:01:02;;;;;;;1.73;1.38;;;19.60;79.20;;;;;;5042230;28;45543;-72
2023/05/08 12:03:29;;;;;;;1.42;1.30;;;19.60;79.30;;;;;;5042231;28;45572;-72
2023/05/08 12:05:57;;;;;;;1.65;1.15;;;19.60;79.50;;;;;;5033623;28;45283;-72
2023/05/08 12:08:25;;;;;;;1.40;1.30;;;19.60;79.60;;;;;;5042004;28;45225;-72
2023/05/08 12:10:54;;;;;;;1.48;1.35;;;19.50;79.60;;;;;;5035115;28;45497;-72
2023/05/08 12:13:22;;;;;;;1.73;1.40;;;19.60;79.80;;;;;;5037222;28;45252;-72
2023/05/08 12:15:52;;;;;;;3.63;1.33;;;19.50;79.80;;;;;;5041073;28;45434;-72
2023/05/08 12:18:19;;;;;;;1.45;1.27;;;19.60;80.00;;;;;;5041642;28;46042;-72
2023/05/08 12:20:46;;;;;;;1.58;1.27;;;19.50;79.80;;;;;;5041674;28;45956;-72
2023/05/08 12:23:13;;;;;;;1.50;1.20;;;19.50;79.70;;;;;;5041837;28;45257;-71
2023/05/08 12:25:40;;;;;;;1.55;1.20;;;19.50;79.90;;;;;;5041719;28;45564;-72
2023/05/08 12:28:09;;;;;;;1.23;1.10;;;19.50;79.80;;;;;;5041487;27;46296;-72
2023/05/08 12:30:37;;;;;;;1.42;1.20;;;19.50;79.50;;;;;;5041943;28;45319;-71
2023/05/08 12:33:05;;;;;;;1.13;1.02;;;19.60;79.40;;;;;;5041994;28;45455;-72
2023/05/08 12:35:32;;;;;;;1.40;1.20;;;19.60;79.20;;;;;;5041574;28;45541;-72
2023/05/08 12:38:02;;;;;;;1.30;1.20;;;19.60;79.10;;;;;;5041480;27;46279;-72
2023/05/08 12:40:30;;;;;;;1.33;1.23;;;19.60;79.20;;;;;;5041725;27;45449;-72
2023/05/08 12:42:57;;;;;;;1.48;1.17;;;19.60;79.10;;;;;;5033544;28;45558;-72
2023/05/08 12:45:27;;;;;;;1.98;1.30;;;19.60;79.10;;;;;;5040111;28;45321;-72
2023/05/08 12:47:58;;;;;;;1.30;1.10;;;19.60;79.00;;;;;;5041282;28;48475;-72
2023/05/08 12:50:25;;;;;;;1.77;1.40;;;19.60;79.40;;;;;;5038833;28;45313;-72
2023/05/08 12:52:52;;;;;;;1.73;1.35;;;19.60;79.60;;;;;;5041923;28;45290;-72
2023/05/08 12:55:23;;;;;;;1.40;1.20;;;19.60;79.70;;;;;;5041171;28;45372;-72
2023/05/08 12:57:58;;;;;;;1.13;1.02;;;19.60;80.10;;;;;;5040791;28;46313;-72